sensor_id;sensor_type;location;lat;lon;timestamp;pressure;altitude;pressure_sealevel;temperature;humidity
64610;BME280;51019;46.090;6.350;2022-10-16T00:01:43;96620.72;;;13.04;100.00
64610;BME280;51019;46.090;6.350;2022-10-16T00:04:11;96616.06;;;12.98;100.00
64610;BME280;51019;46.090;6.350;2022-10-16T00:06:39;96612.13;;;12.94;100.00
64610;BME280;51019;46.090;6.350;2022-10-16T00:09:07;96595.31;;;12.44;100.00
64610;BME280;51019;46.090;6.350;2022-10-16T00:11:38;96623.59;;;12.67;100.00
64610;BME280;51019;46.090;6.350;2022-10-16T00:14:09;96621.19;;;12.74;100.00
64610;BME280;51019;46.090;6.350;2022-10-16T00:16:38;96609.19;;;12.54;100.00
64610;BME280;51019;46.090;6.350;2022-10-16T00:19:07;96608.53;;;12.52;100.00
64610;BME280;51019;46.090;6.350;2022-10-16T00:21:36;96621.00;;;12.50;100.00
64610;BME280;51019;46.090;6.350;2022-10-16T00:24:07;96616.19;;;12.45;100.00
64610;BME280;51019;46.090;6.350;2022-10-16T00:26:36;96614.47;;;12.36;100.00
64610;BME280;51019;46.090;6.350;2022-10-16T00:29:05;96596.41;;;12.15;100.00
64610;BME280;51019;46.090;6.350;2022-10-16T00:31:33;96618.84;;;12.27;100.00
64610;BME280;51019;46.090;6.350;2022-10-16T00:34:00;96616.06;;;12.29;100.00
64610;BME280;51019;46.090;6.350;2022-10-16T00:36:30;96606.06;;;12.15;100.00
64610;BME280;51019;46.090;6.350;2022-10-16T00:38:59;96630.00;;;12.12;100.00
64610;BME280;51019;46.090;6.350;2022-10-16T00:41:27;96629.47;;;12.08;100.00
64610;BME280;51019;46.090;6.350;2022-10-16T00:43:56;96635.28;;;12.12;100.00
64610;BME280;51019;46.090;6.350;2022-10-16T00:46:25;96635.28;;;12.12;100.00
64610;BME280;51019;46.090;6.350;2022-10-16T00:48:59;96629.69;;;11.97;100.00
64610;BME280;51019;46.090;6.350;2022-10-16T00:51:34;96635.41;;;12.10;100.00
64610;BME280;51019;46.090;6.350;2022-10-16T00:54:05;96651.59;;;11.88;100.00
64610;BME280;51019;46.090;6.350;2022-10-16T00:56:35;96645.00;;;11.74;100.00
64610;BME280;51019;46.090;6.350;2022-10-16T00:59:06;96639.88;;;11.55;100.00
64610;BME280;51019;46.090;6.350;2022-10-16T01:01:36;96649.88;;;11.69;100.00
64610;BME280;51019;46.090;6.350;2022-10-16T01:04:03;96643.56;;;11.89;100.00
64610;BME280;51019;46.090;6.350;2022-10-16T01:06:38;96640.06;;;11.98;100.00
64610;BME280;51019;46.090;6.350;2022-10-16T01:09:13;96640.19;;;11.97;100.00
64610;BME280;51019;46.090;6.350;2022-10-16T01:11:47;96644.88;;;12.03;100.00
64610;BME280;51019;46.090;6.350;2022-10-16T01:14:22;96637.53;;;12.07;100.00
64610;BME280;51019;46.090;6.350;2022-10-16T01:16:58;96640.66;;;12.10;100.00
64610;BME280;51019;46.090;6.350;2022-10-16T01:19:40;96643.22;;;12.02;100.00
64610;BME280;51019;46.090;6.350;2022-10-16T01:22:13;96611.88;;;11.73;100.00
64610;BME280;51019;46.090;6.350;2022-10-16T01:24:45;96644.59;;;11.79;100.00
64610;BME280;51019;46.090;6.350;2022-10-16T01:27:17;96646.88;;;11.64;100.00
64610;BME280;51019;46.090;6.350;2022-10-16T01:29:51;96647.09;;;11.43;100.00
64610;BME280;51019;46.090;6.350;2022-10-16T01:32:28;96609.03;;;11.02;100.00
64610;BME280;51019;46.090;6.350;2022-10-16T01:35:02;96639.41;;;11.05;100.00
64610;BME280;51019;46.090;6.350;2022-10-16T01:37:35;96643.84;;;10.95;100.00
64610;BME280;51019;46.090;6.350;2022-10-16T01:40:11;96634.78;;;10.70;100.00
64610;BME280;51019;46.090;6.350;2022-10-16T01:42:45;96652.38;;;10.97;100.00
64610;BME280;51019;46.090;6.350;2022-10-16T01:45:17;96653.03;;;11.08;100.00
64610;BME280;51019;46.090;6.350;2022-10-16T01:47:47;96650.72;;;10.96;100.00
64610;BME280;51019;46.090;6.350;2022-10-16T01:50:18;96649.09;;;10.95;100.00
64610;BME280;51019;46.090;6.350;2022-10-16T01:52:49;96628.84;;;10.68;100.00
64610;BME280;51019;46.090;6.350;2022-10-16T01:55:25;96659.81;;;11.01;100.00
64610;BME280;51019;46.090;6.350;2022-10-16T01:57:58;96662.88;;;10.87;100.00
64610;BME280;51019;46.090;6.350;2022-10-16T02:00:28;96661.66;;;10.81;100.00
64610;BME280;51019;46.090;6.350;2022-10-16T02:02:58;96657.09;;;10.74;100.00
64610;BME280;51019;46.090;6.350;2022-10-16T02:05:32;96661.00;;;10.70;100.00
64610;BME280;51019;46.090;6.350;2022-10-16T02:08:01;96656.28;;;10.83;100.00
64610;BME280;51019;46.090;6.350;2022-10-16T02:10:29;96661.00;;;10.60;100.00
64610;BME280;51019;46.090;6.350;2022-10-16T02:13:03;96654.66;;;10.53;100.00
64610;BME280;51019;46.090;6.350;2022-10-16T02:15:32;96652.44;;;10.58;100.00
64610;BME280;51019;46.090;6.350;2022-10-16T02:18:00;96632.44;;;10.67;100.00
64610;BME280;51019;46.090;6.350;2022-10-16T02:20:29;96640.31;;;10.47;100.00
64610;BME280;51019;46.090;6.350;2022-10-16T02:23:01;96643.06;;;10.55;100.00
64610;BME280;51019;46.090;6.350;2022-10-16T02:25:30;96620.28;;;10.17;100.00
64610;BME280;51019;46.090;6.350;2022-10-16T02:28:04;96644.88;;;10.36;100.00
64610;BME280;51019;46.090;6.350;2022-10-16T02:30:36;96639.63;;;10.55;100.00
64610;BME280;51019;46.090;6.350;2022-10-16T02:33:09;96648.84;;;10.69;100.00
64610;BME280;51019;46.090;6.350;2022-10-16T02:35:40;96647.88;;;10.50;100.00
64610;BME280;51019;46.090;6.350;2022-10-16T02:38:09;96656.72;;;10.40;100.00
64610;BME280;51019;46.090;6.350;2022-10-16T02:40:37;96628.88;;;10.19;100.00
64610;BME280;51019;46.090;6.350;2022-10-16T02:43:08;96655.22;;;10.47;100.00
64610;BME280;51019;46.090;6.350;2022-10-16T02:45:35;96612.47;;;10.37;100.00
64610;BME280;51019;46.090;6.350;2022-10-16T02:48:03;96650.91;;;10.65;100.00
64610;BME280;51019;46.090;6.350;2022-10-16T02:50:32;96644.44;;;10.50;100.00
64610;BME280;51019;46.090;6.350;2022-10-16T02:52:59;96621.16;;;10.47;100.00
64610;BME280;51019;46.090;6.350;2022-10-16T02:55:26;96618.66;;;10.45;100.00
64610;BME280;51019;46.090;6.350;2022-10-16T02:57:55;96643.84;;;10.75;100.00
64610;BME280;51019;46.090;6.350;2022-10-16T03:00:26;96638.72;;;10.93;100.00
64610;BME280;51019;46.090;6.350;2022-10-16T03:02:54;96643.00;;;10.94;100.00
64610;BME280;51019;46.090;6.350;2022-10-16T03:05:22;96641.59;;;11.00;100.00
64610;BME280;51019;46.090;6.350;2022-10-16T03:07:50;96622.56;;;10.98;100.00
64610;BME280;51019;46.090;6.350;2022-10-16T03:10:18;96628.91;;;11.05;100.00
64610;BME280;51019;46.090;6.350;2022-10-16T03:12:45;96636.03;;;11.12;100.00
64610;BME280;51019;46.090;6.350;2022-10-16T03:15:13;96634.06;;;11.24;100.00
64610;BME280;51019;46.090;6.350;2022-10-16T03:17:42;96632.91;;;11.36;100.00
64610;BME280;51019;46.090;6.350;2022-10-16T03:20:10;96643.09;;;11.49;100.00
64610;BME280;51019;46.090;6.350;2022-10-16T03:22:38;96637.06;;;11.39;100.00
64610;BME280;51019;46.090;6.350;2022-10-16T03:25:07;96643.59;;;11.52;100.00
64610;BME280;51019;46.090;6.350;2022-10-16T03:27:35;96633.69;;;11.46;100.00
64610;BME280;51019;46.090;6.350;2022-10-16T03:30:03;96646.03;;;11.63;100.00
64610;BME280;51019;46.090;6.350;2022-10-16T03:32:32;96646.13;;;11.44;100.00
64610;BME280;51019;46.090;6.350;2022-10-16T03:35:02;96640.50;;;11.39;100.00
64610;BME280;51019;46.090;6.350;2022-10-16T03:37:30;96658.25;;;11.18;100.00
64610;BME280;51019;46.090;6.350;2022-10-16T03:39:57;96643.25;;;11.01;100.00
64610;BME280;51019;46.090;6.350;2022-10-16T03:42:25;96642.50;;;10.81;100.00
64610;BME280;51019;46.090;6.350;2022-10-16T03:44:53;96649.38;;;10.72;100.00
64610;BME280;51019;46.090;6.350;2022-10-16T03:47:20;96672.28;;;10.89;100.00
64610;BME280;51019;46.090;6.350;2022-10-16T03:49:49;96658.91;;;10.64;100.00
64610;BME280;51019;46.090;6.350;2022-10-16T03:52:19;96650.25;;;10.34;100.00
64610;BME280;51019;46.090;6.350;2022-10-16T03:54:47;96663.91;;;10.38;100.00
64610;BME280;51019;46.090;6.350;2022-10-16T03:57:14;96659.06;;;10.33;100.00
64610;BME280;51019;46.090;6.350;2022-10-16T03:59:42;96667.19;;;10.30;100.00
64610;BME280;51019;46.090;6.350;2022-10-16T04:02:09;96671.22;;;10.25;100.00
64610;BME280;51019;46.090;6.350;2022-10-16T04:04:38;96638.63;;;9.98;100.00
64610;BME280;51019;46.090;6.350;2022-10-16T04:07:05;96653.38;;;9.99;100.00
64610;BME280;51019;46.090;6.350;2022-10-16T04:09:36;96669.81;;;10.21;100.00
64610;BME280;51019;46.090;6.350;2022-10-16T04:12:04;96671.22;;;10.44;100.00
64610;BME280;51019;46.090;6.350;2022-10-16T04:14:31;96671.47;;;10.31;100.00
64610;BME280;51019;46.090;6.350;2022-10-16T04:16:59;96669.16;;;10.38;100.00
64610;BME280;51019;46.090;6.350;2022-10-16T04:19:27;96672.03;;;10.54;100.00
64610;BME280;51019;46.090;6.350;2022-10-16T04:21:55;96679.63;;;10.47;100.00
64610;BME280;51019;46.090;6.350;2022-10-16T04:24:22;96662.66;;;10.32;100.00
64610;BME280;51019;46.090;6.350;2022-10-16T04:26:52;96684.03;;;10.47;100.00
64610;BME280;51019;46.090;6.350;2022-10-16T04:29:20;96689.13;;;10.39;100.00
64610;BME280;51019;46.090;6.350;2022-10-16T04:31:47;96680.31;;;10.30;100.00
64610;BME280;51019;46.090;6.350;2022-10-16T04:34:16;96681.13;;;10.50;100.00
64610;BME280;51019;46.090;6.350;2022-10-16T04:36:43;96676.72;;;10.50;100.00
64610;BME280;51019;46.090;6.350;2022-10-16T04:39:10;96677.69;;;10.40;100.00
64610;BME280;51019;46.090;6.350;2022-10-16T04:41:38;96682.38;;;10.46;100.00
64610;BME280;51019;46.090;6.350;2022-10-16T04:44:07;96676.44;;;10.34;100.00
64610;BME280;51019;46.090;6.350;2022-10-16T04:46:35;96674.63;;;10.15;100.00
64610;BME280;51019;46.090;6.350;2022-10-16T04:49:05;96670.59;;;10.02;100.00
64610;BME280;51019;46.090;6.350;2022-10-16T04:51:32;96628.66;;;9.73;100.00
64610;BME280;51019;46.090;6.350;2022-10-16T04:54:00;96660.25;;;9.81;100.00
64610;BME280;51019;46.090;6.350;2022-10-16T04:56:27;96688.63;;;10.05;100.00
64610;BME280;51019;46.090;6.350;2022-10-16T04:58:55;96663.97;;;9.88;100.00
64610;BME280;51019;46.090;6.350;2022-10-16T05:01:25;96681.34;;;9.99;100.00
64610;BME280;51019;46.090;6.350;2022-10-16T05:03:53;96678.59;;;10.00;100.00
64610;BME280;51019;46.090;6.350;2022-10-16T05:06:21;96693.88;;;10.05;100.00
64610;BME280;51019;46.090;6.350;2022-10-16T05:08:49;96693.09;;;10.04;100.00
64610;BME280;51019;46.090;6.350;2022-10-16T05:11:16;96694.03;;;10.03;100.00
64610;BME280;51019;46.090;6.350;2022-10-16T05:13:44;96673.63;;;9.97;100.00
64610;BME280;51019;46.090;6.350;2022-10-16T05:16:11;96673.75;;;10.05;100.00
64610;BME280;51019;46.090;6.350;2022-10-16T05:18:40;96685.97;;;10.26;100.00
64610;BME280;51019;46.090;6.350;2022-10-16T05:21:08;96706.22;;;10.24;100.00
64610;BME280;51019;46.090;6.350;2022-10-16T05:23:35;96690.72;;;10.01;100.00
64610;BME280;51019;46.090;6.350;2022-10-16T05:26:03;96695.16;;;10.10;100.00
64610;BME280;51019;46.090;6.350;2022-10-16T05:28:31;96693.34;;;10.01;100.00
64610;BME280;51019;46.090;6.350;2022-10-16T05:30:59;96691.56;;;10.11;100.00
64610;BME280;51019;46.090;6.350;2022-10-16T05:33:26;96676.25;;;10.07;100.00
64610;BME280;51019;46.090;6.350;2022-10-16T05:35:56;96701.13;;;10.32;100.00
64610;BME280;51019;46.090;6.350;2022-10-16T05:38:23;96691.00;;;10.17;100.00
64610;BME280;51019;46.090;6.350;2022-10-16T05:40:55;96705.66;;;10.20;100.00
64610;BME280;51019;46.090;6.350;2022-10-16T05:43:23;96682.44;;;10.06;100.00
64610;BME280;51019;46.090;6.350;2022-10-16T05:45:55;96674.69;;;9.85;100.00
64610;BME280;51019;46.090;6.350;2022-10-16T05:48:23;96701.47;;;10.08;100.00
64610;BME280;51019;46.090;6.350;2022-10-16T05:51:01;96703.34;;;10.27;100.00
64610;BME280;51019;46.090;6.350;2022-10-16T05:53:31;96686.03;;;10.05;100.00
64610;BME280;51019;46.090;6.350;2022-10-16T05:55:59;96697.75;;;10.10;100.00
64610;BME280;51019;46.090;6.350;2022-10-16T05:58:29;96699.28;;;10.03;100.00
64610;BME280;51019;46.090;6.350;2022-10-16T06:00:57;96699.59;;;10.19;100.00
64610;BME280;51019;46.090;6.350;2022-10-16T06:03:27;96695.84;;;10.03;100.00
64610;BME280;51019;46.090;6.350;2022-10-16T06:05:55;96702.88;;;10.12;100.00
64610;BME280;51019;46.090;6.350;2022-10-16T06:08:24;96721.13;;;10.23;100.00
64610;BME280;51019;46.090;6.350;2022-10-16T06:11:00;96725.59;;;10.11;100.00
64610;BME280;51019;46.090;6.350;2022-10-16T06:13:29;96728.94;;;10.13;100.00
64610;BME280;51019;46.090;6.350;2022-10-16T06:15:57;96733.38;;;10.23;100.00
64610;BME280;51019;46.090;6.350;2022-10-16T06:18:25;96710.59;;;10.04;100.00
64610;BME280;51019;46.090;6.350;2022-10-16T06:20:53;96726.22;;;10.25;100.00
64610;BME280;51019;46.090;6.350;2022-10-16T06:23:20;96718.63;;;10.22;100.00
64610;BME280;51019;46.090;6.350;2022-10-16T06:25:49;96734.22;;;10.33;100.00
64610;BME280;51019;46.090;6.350;2022-10-16T06:28:16;96741.94;;;10.34;100.00
64610;BME280;51019;46.090;6.350;2022-10-16T06:30:44;96704.41;;;10.14;100.00
64610;BME280;51019;46.090;6.350;2022-10-16T06:33:12;96727.19;;;10.52;100.00
64610;BME280;51019;46.090;6.350;2022-10-16T06:35:39;96749.00;;;10.72;100.00
64610;BME280;51019;46.090;6.350;2022-10-16T06:38:09;96728.84;;;10.44;100.00
64610;BME280;51019;46.090;6.350;2022-10-16T06:40:37;96750.91;;;10.51;100.00
64610;BME280;51019;46.090;6.350;2022-10-16T06:43:06;96741.81;;;10.55;100.00
64610;BME280;51019;46.090;6.350;2022-10-16T06:45:33;96758.50;;;10.73;100.00
64610;BME280;51019;46.090;6.350;2022-10-16T06:48:02;96752.56;;;11.00;100.00
64610;BME280;51019;46.090;6.350;2022-10-16T06:50:37;96753.00;;;11.05;100.00
64610;BME280;51019;46.090;6.350;2022-10-16T06:53:05;96757.81;;;10.62;100.00
64610;BME280;51019;46.090;6.350;2022-10-16T06:55:33;96761.28;;;10.62;100.00
64610;BME280;51019;46.090;6.350;2022-10-16T06:58:00;96735.22;;;10.80;100.00
64610;BME280;51019;46.090;6.350;2022-10-16T07:00:37;96750.16;;;11.45;100.00
64610;BME280;51019;46.090;6.350;2022-10-16T07:03:05;96780.03;;;11.81;100.00
64610;BME280;51019;46.090;6.350;2022-10-16T07:05:37;96776.34;;;12.02;100.00
64610;BME280;51019;46.090;6.350;2022-10-16T07:08:05;96789.06;;;12.33;100.00
64610;BME280;51019;46.090;6.350;2022-10-16T07:10:33;96788.88;;;12.62;100.00
64610;BME280;51019;46.090;6.350;2022-10-16T07:13:02;96781.69;;;12.82;100.00
64610;BME280;51019;46.090;6.350;2022-10-16T07:15:30;96790.09;;;13.03;100.00
64610;BME280;51019;46.090;6.350;2022-10-16T07:18:00;96792.28;;;13.08;100.00
64610;BME280;51019;46.090;6.350;2022-10-16T07:20:29;96788.66;;;13.27;100.00
64610;BME280;51019;46.090;6.350;2022-10-16T07:22:57;96797.94;;;13.57;100.00
64610;BME280;51019;46.090;6.350;2022-10-16T07:25:25;96798.22;;;13.79;100.00
64610;BME280;51019;46.090;6.350;2022-10-16T07:27:57;96804.63;;;13.77;100.00
64610;BME280;51019;46.090;6.350;2022-10-16T07:30:25;96786.97;;;13.95;100.00
64610;BME280;51019;46.090;6.350;2022-10-16T07:32:53;96807.00;;;14.56;100.00
64610;BME280;51019;46.090;6.350;2022-10-16T07:35:22;96793.22;;;14.78;100.00
64610;BME280;51019;46.090;6.350;2022-10-16T07:37:49;96805.44;;;14.87;100.00
64610;BME280;51019;46.090;6.350;2022-10-16T07:40:17;96805.59;;;14.94;99.43
64610;BME280;51019;46.090;6.350;2022-10-16T07:42:44;96816.16;;;15.02;98.40
64610;BME280;51019;46.090;6.350;2022-10-16T07:45:12;96818.84;;;15.18;98.68
64610;BME280;51019;46.090;6.350;2022-10-16T07:47:40;96819.50;;;15.53;97.79
64610;BME280;51019;46.090;6.350;2022-10-16T07:50:09;96810.59;;;15.70;93.87
64610;BME280;51019;46.090;6.350;2022-10-16T07:52:38;96807.44;;;15.83;92.67
64610;BME280;51019;46.090;6.350;2022-10-16T07:55:06;96820.09;;;16.12;90.99
64610;BME280;51019;46.090;6.350;2022-10-16T07:57:34;96797.03;;;16.28;87.83
64610;BME280;51019;46.090;6.350;2022-10-16T08:00:01;96841.06;;;16.60;85.37
64610;BME280;51019;46.090;6.350;2022-10-16T08:02:29;96846.78;;;16.80;83.06
64610;BME280;51019;46.090;6.350;2022-10-16T08:04:56;96849.00;;;17.22;80.27
64610;BME280;51019;46.090;6.350;2022-10-16T08:07:23;96846.56;;;17.66;77.45
64610;BME280;51019;46.090;6.350;2022-10-16T08:09:53;96828.72;;;17.37;74.84
64610;BME280;51019;46.090;6.350;2022-10-16T08:12:22;96848.03;;;17.69;72.72
64610;BME280;51019;46.090;6.350;2022-10-16T08:14:49;96853.19;;;18.00;73.91
64610;BME280;51019;46.090;6.350;2022-10-16T08:17:17;96855.25;;;17.29;71.14
64610;BME280;51019;46.090;6.350;2022-10-16T08:19:45;96869.03;;;16.94;69.40
64610;BME280;51019;46.090;6.350;2022-10-16T08:22:13;96871.84;;;17.23;69.92
64610;BME280;51019;46.090;6.350;2022-10-16T08:24:41;96867.31;;;17.09;71.42
64610;BME280;51019;46.090;6.350;2022-10-16T08:27:11;96859.84;;;17.35;70.76
64610;BME280;51019;46.090;6.350;2022-10-16T08:29:40;96855.25;;;17.75;68.49
64610;BME280;51019;46.090;6.350;2022-10-16T08:32:08;96855.38;;;17.59;69.54
64610;BME280;51019;46.090;6.350;2022-10-16T08:34:36;96835.53;;;17.55;68.37
64610;BME280;51019;46.090;6.350;2022-10-16T08:37:03;96857.16;;;17.66;69.40
64610;BME280;51019;46.090;6.350;2022-10-16T08:39:32;96839.59;;;17.65;69.60
64610;BME280;51019;46.090;6.350;2022-10-16T08:42:31;96862.88;;;17.93;69.77
64610;BME280;51019;46.090;6.350;2022-10-16T08:45:33;96863.66;;;17.56;70.59
64610;BME280;51019;46.090;6.350;2022-10-16T08:48:12;96871.59;;;18.01;67.30
64610;BME280;51019;46.090;6.350;2022-10-16T08:50:41;96864.97;;;17.37;71.59
64610;BME280;51019;46.090;6.350;2022-10-16T08:53:15;96854.56;;;17.96;66.14
64610;BME280;51019;46.090;6.350;2022-10-16T08:55:46;96866.13;;;18.47;66.73
64610;BME280;51019;46.090;6.350;2022-10-16T08:58:17;96874.44;;;19.24;63.59
64610;BME280;51019;46.090;6.350;2022-10-16T09:00:47;96864.97;;;19.79;60.35
64610;BME280;51019;46.090;6.350;2022-10-16T09:03:26;96865.88;;;20.14;57.47
64610;BME280;51019;46.090;6.350;2022-10-16T09:06:17;96867.41;;;20.29;55.49
64610;BME280;51019;46.090;6.350;2022-10-16T09:08:58;96855.69;;;20.24;54.50
64610;BME280;51019;46.090;6.350;2022-10-16T09:11:37;96866.97;;;20.54;55.28
64610;BME280;51019;46.090;6.350;2022-10-16T09:14:23;96865.16;;;20.33;55.31
64610;BME280;51019;46.090;6.350;2022-10-16T09:17:11;96864.06;;;20.49;54.72
64610;BME280;51019;46.090;6.350;2022-10-16T09:19:46;96854.06;;;19.95;56.55
64610;BME280;51019;46.090;6.350;2022-10-16T09:22:27;96863.06;;;20.50;54.73
64610;BME280;51019;46.090;6.350;2022-10-16T09:24:59;96864.06;;;21.44;53.25
64610;BME280;51019;46.090;6.350;2022-10-16T09:27:28;96868.09;;;21.33;53.92
64610;BME280;51019;46.090;6.350;2022-10-16T09:29:57;96867.97;;;21.94;52.33
64610;BME280;51019;46.090;6.350;2022-10-16T09:32:25;96865.72;;;21.71;51.16
64610;BME280;51019;46.090;6.350;2022-10-16T09:34:55;96873.94;;;21.63;50.41
64610;BME280;51019;46.090;6.350;2022-10-16T09:37:24;96871.69;;;21.87;48.07
64610;BME280;51019;46.090;6.350;2022-10-16T09:39:54;96872.09;;;21.84;46.61
64610;BME280;51019;46.090;6.350;2022-10-16T09:42:24;96859.44;;;22.83;44.79
64610;BME280;51019;46.090;6.350;2022-10-16T09:44:54;96865.22;;;22.80;44.59
64610;BME280;51019;46.090;6.350;2022-10-16T09:47:25;96865.16;;;22.93;45.85
64610;BME280;51019;46.090;6.350;2022-10-16T09:49:56;96863.16;;;22.89;47.01
64610;BME280;51019;46.090;6.350;2022-10-16T09:52:29;96862.22;;;23.08;47.64
64610;BME280;51019;46.090;6.350;2022-10-16T09:54:58;96862.06;;;23.41;46.94
64610;BME280;51019;46.090;6.350;2022-10-16T09:57:28;96865.28;;;23.49;46.55
64610;BME280;51019;46.090;6.350;2022-10-16T09:59:58;96841.75;;;23.33;46.26
64610;BME280;51019;46.090;6.350;2022-10-16T10:02:30;96857.44;;;23.23;46.29
64610;BME280;51019;46.090;6.350;2022-10-16T10:05:01;96844.53;;;23.51;46.23
64610;BME280;51019;46.090;6.350;2022-10-16T10:07:32;96857.75;;;23.71;45.45
64610;BME280;51019;46.090;6.350;2022-10-16T10:10:03;96857.66;;;24.34;43.78
64610;BME280;51019;46.090;6.350;2022-10-16T10:12:32;96837.97;;;24.04;42.69
64610;BME280;51019;46.090;6.350;2022-10-16T10:15:04;96843.84;;;24.55;43.26
64610;BME280;51019;46.090;6.350;2022-10-16T10:17:46;96847.13;;;24.57;43.27
64610;BME280;51019;46.090;6.350;2022-10-16T10:20:27;96855.47;;;25.34;41.95
64610;BME280;51019;46.090;6.350;2022-10-16T10:22:56;96846.75;;;25.39;40.08
64610;BME280;51019;46.090;6.350;2022-10-16T10:25:34;96842.53;;;26.37;39.31
64610;BME280;51019;46.090;6.350;2022-10-16T10:28:21;96844.69;;;25.52;39.73
64610;BME280;51019;46.090;6.350;2022-10-16T10:30:58;96827.41;;;25.78;37.63
64610;BME280;51019;46.090;6.350;2022-10-16T10:33:36;96837.94;;;26.61;36.12
64610;BME280;51019;46.090;6.350;2022-10-16T10:36:22;96855.09;;;27.52;33.68
64610;BME280;51019;46.090;6.350;2022-10-16T10:38:56;96848.66;;;28.15;33.83
64610;BME280;51019;46.090;6.350;2022-10-16T10:44:36;96828.22;;;27.69;34.27
64610;BME280;51019;46.090;6.350;2022-10-16T10:47:13;96846.97;;;28.64;32.17
64610;BME280;51019;46.090;6.350;2022-10-16T10:49:56;96838.94;;;28.69;31.98
64610;BME280;51019;46.090;6.350;2022-10-16T10:52:41;96835.19;;;27.08;33.24
64610;BME280;51019;46.090;6.350;2022-10-16T10:55:19;96830.84;;;28.86;31.21
64610;BME280;51019;46.090;6.350;2022-10-16T10:58:10;96835.28;;;29.19;30.82
64610;BME280;51019;46.090;6.350;2022-10-16T11:00:49;96839.22;;;29.60;30.67
64610;BME280;51019;46.090;6.350;2022-10-16T11:03:31;96833.22;;;28.44;31.05
64610;BME280;51019;46.090;6.350;2022-10-16T11:06:06;96832.59;;;30.00;29.56
64610;BME280;51019;46.090;6.350;2022-10-16T11:08:41;96824.56;;;30.15;29.12
64610;BME280;51019;46.090;6.350;2022-10-16T11:11:11;96834.38;;;29.94;29.64
64610;BME280;51019;46.090;6.350;2022-10-16T11:13:43;96826.34;;;28.75;31.45
64610;BME280;51019;46.090;6.350;2022-10-16T11:16:17;96816.09;;;30.85;29.24
64610;BME280;51019;46.090;6.350;2022-10-16T11:18:51;96817.53;;;28.79;31.16
64610;BME280;51019;46.090;6.350;2022-10-16T11:21:22;96815.88;;;30.50;29.88
64610;BME280;51019;46.090;6.350;2022-10-16T11:23:53;96818.66;;;31.17;28.42
64610;BME280;51019;46.090;6.350;2022-10-16T11:26:26;96816.34;;;30.84;29.39
64610;BME280;51019;46.090;6.350;2022-10-16T11:28:57;96813.13;;;30.40;30.42
64610;BME280;51019;46.090;6.350;2022-10-16T11:31:32;96810.34;;;31.34;29.33
64610;BME280;51019;46.090;6.350;2022-10-16T11:34:05;96798.91;;;30.54;30.29
64610;BME280;51019;46.090;6.350;2022-10-16T11:36:44;96797.66;;;31.60;29.71
64610;BME280;51019;46.090;6.350;2022-10-16T11:39:19;96792.88;;;30.99;29.89
64610;BME280;51019;46.090;6.350;2022-10-16T11:41:50;96778.72;;;30.77;30.02
64610;BME280;51019;46.090;6.350;2022-10-16T11:44:36;96793.47;;;29.75;29.30
64610;BME280;51019;46.090;6.350;2022-10-16T11:47:16;96792.63;;;29.75;29.56
64610;BME280;51019;46.090;6.350;2022-10-16T11:49:47;96786.66;;;30.42;29.37
64610;BME280;51019;46.090;6.350;2022-10-16T11:52:23;96791.03;;;32.77;27.71
64610;BME280;51019;46.090;6.350;2022-10-16T11:54:57;96778.91;;;32.50;27.04
64610;BME280;51019;46.090;6.350;2022-10-16T11:57:29;96778.31;;;32.63;26.31
64610;BME280;51019;46.090;6.350;2022-10-16T12:00:04;96778.72;;;33.00;25.89
64610;BME280;51019;46.090;6.350;2022-10-16T12:02:53;96773.19;;;32.51;27.94
64610;BME280;51019;46.090;6.350;2022-10-16T12:05:28;96785.34;;;33.33;27.08
64610;BME280;51019;46.090;6.350;2022-10-16T12:08:08;96767.59;;;32.02;27.07
64610;BME280;51019;46.090;6.350;2022-10-16T12:10:37;96778.97;;;31.79;27.31
64610;BME280;51019;46.090;6.350;2022-10-16T12:13:30;96776.81;;;32.01;28.07
64610;BME280;51019;46.090;6.350;2022-10-16T12:16:05;96767.44;;;32.63;27.11
64610;BME280;51019;46.090;6.350;2022-10-16T12:18:33;96779.44;;;31.30;27.93
64610;BME280;51019;46.090;6.350;2022-10-16T12:21:02;96763.78;;;32.23;28.36
64610;BME280;51019;46.090;6.350;2022-10-16T12:23:37;96770.16;;;31.05;29.83
64610;BME280;51019;46.090;6.350;2022-10-16T12:26:07;96761.22;;;31.00;30.20
64610;BME280;51019;46.090;6.350;2022-10-16T12:28:34;96754.09;;;30.21;29.96
64610;BME280;51019;46.090;6.350;2022-10-16T12:31:06;96758.13;;;29.23;31.05
64610;BME280;51019;46.090;6.350;2022-10-16T12:33:36;96743.63;;;27.03;34.39
64610;BME280;51019;46.090;6.350;2022-10-16T12:36:09;96759.81;;;29.56;32.15
64610;BME280;51019;46.090;6.350;2022-10-16T12:38:49;96748.72;;;29.89;33.32
64610;BME280;51019;46.090;6.350;2022-10-16T12:41:25;96761.88;;;30.60;32.20
64610;BME280;51019;46.090;6.350;2022-10-16T12:43:53;96755.94;;;30.11;31.77
64610;BME280;51019;46.090;6.350;2022-10-16T12:46:33;96764.28;;;29.18;33.10
64610;BME280;51019;46.090;6.350;2022-10-16T12:49:18;96748.44;;;29.54;32.49
64610;BME280;51019;46.090;6.350;2022-10-16T12:51:48;96756.50;;;29.22;32.58
64610;BME280;51019;46.090;6.350;2022-10-16T12:54:19;96756.41;;;29.71;33.31
64610;BME280;51019;46.090;6.350;2022-10-16T12:56:57;96751.84;;;28.08;34.38
64610;BME280;51019;46.090;6.350;2022-10-16T12:59:40;96756.59;;;29.32;33.14
64610;BME280;51019;46.090;6.350;2022-10-16T13:05:33;96753.41;;;28.21;34.77
64610;BME280;51019;46.090;6.350;2022-10-16T13:08:17;96740.66;;;29.04;34.16
64610;BME280;51019;46.090;6.350;2022-10-16T13:11:02;96750.44;;;28.23;33.99
64610;BME280;51019;46.090;6.350;2022-10-16T13:13:50;96749.69;;;27.27;36.79
64610;BME280;51019;46.090;6.350;2022-10-16T13:16:28;96738.38;;;26.56;36.32
64610;BME280;51019;46.090;6.350;2022-10-16T13:19:06;96745.13;;;26.07;38.47
64610;BME280;51019;46.090;6.350;2022-10-16T13:21:45;96735.94;;;25.26;37.74
64610;BME280;51019;46.090;6.350;2022-10-16T13:24:36;96736.13;;;25.78;39.81